Garuhape, Argentina
Current Conditions -  °F | °C
As of 2:00 PM on Thursday 23 Oct 2014 (Local Time) from SARP Reporting Station
Scattered Clouds Scattered Clouds  
Wind Chill: 32°   Ceiling: Unl
Heat Index: 32°   Visibility: 6mi
Dew Point: 14°   Wind: 6mph
Humidity: 33%   Direction: 230°SW
Pressure: 29.94"   Gusts: NA
Location:  26.86°S, 55.02°W
Report Text: SARP 231700Z 23005KT 9999 FEW030 SCT20032/14 Q1014
Loading
Personal Weather Stations






























Interactive Weather Map
Tropical Storm Tracking
New forecast layout! Learn more

10-Day Weather Forecast

Advertisements
Track Severe Weather on mobile